Time;durP1;ratioP1;P1;durP2;ratioP2;P2;SDS_P1;SDS_P2;PMS_P1;PMS_P2;Temp;Humidity;BMP_temperature;BMP_pressure;BME280_temperature;BME280_humidity;BME280_pressure;Samples;Min_cycle;Max_cycle;Signal;HPM_P1;HPM_P2
2022/06/09 00:01:28;;;;;;;4.73;4.33;;;18.00;99.90;;;;;;6302143;28;20469;-62
2022/06/09 00:04:35;;;;;;;5.10;4.70;;;18.00;99.90;;;;;;6303354;28;20580;-62
2022/06/09 00:07:38;;;;;;;5.77;4.47;;;18.00;99.90;;;;;;6302983;28;20472;-62
2022/06/09 00:10:48;;;;;;;4.50;4.10;;;18.00;99.90;;;;;;6303157;28;20476;-62
2022/06/09 00:13:51;;;;;;;5.47;4.77;;;18.10;99.90;;;;;;6302577;28;20469;-62
2022/06/09 00:16:56;;;;;;;4.33;4.00;;;18.10;99.90;;;;;;6302709;28;20469;-63
2022/06/09 00:19:59;;;;;;;5.70;4.23;;;18.10;99.90;;;;;;6302737;28;20237;-62
2022/06/09 00:23:03;;;;;;;4.67;4.37;;;18.20;99.90;;;;;;6302709;28;20469;-62
2022/06/09 00:26:06;;;;;;;6.80;4.63;;;18.20;99.90;;;;;;6302663;28;20473;-62
2022/06/09 00:29:10;;;;;;;4.20;3.83;;;18.20;99.90;;;;;;6302916;28;20457;-62
2022/06/09 00:32:15;;;;;;;3.90;3.60;;;18.20;99.90;;;;;;6302458;28;20477;-62
2022/06/09 00:35:18;;;;;;;5.60;3.90;;;18.20;99.90;;;;;;6302266;28;20474;-62
2022/06/09 00:38:21;;;;;;;7.90;5.17;;;18.10;99.90;;;;;;6302144;28;20477;-63
2022/06/09 00:41:25;;;;;;;6.67;3.90;;;18.10;99.90;;;;;;6302299;28;20469;-63
2022/06/09 00:44:30;;;;;;;7.30;4.80;;;18.10;99.90;;;;;;6302410;28;20473;-62
2022/06/09 00:47:35;;;;;;;4.27;3.40;;;18.20;99.90;;;;;;6301838;28;20591;-62
2022/06/09 00:50:40;;;;;;;5.10;4.40;;;18.10;99.90;;;;;;6302149;28;20469;-61
2022/06/09 00:53:45;;;;;;;8.27;4.00;;;18.10;99.90;;;;;;6301930;28;20485;-61
2022/06/09 00:56:51;;;;;;;4.97;4.40;;;18.10;99.90;;;;;;6302999;28;20468;-61
2022/06/09 00:59:57;;;;;;;4.63;4.00;;;18.10;99.90;;;;;;6302084;28;20927;-62
2022/06/09 01:03:03;;;;;;;6.50;4.10;;;18.10;99.90;;;;;;6302145;28;20965;-62
2022/06/09 01:06:10;;;;;;;4.47;3.70;;;18.20;99.90;;;;;;6301594;28;20603;-63
2022/06/09 01:09:16;;;;;;;4.40;4.00;;;18.20;99.90;;;;;;6301597;28;20957;-62
2022/06/09 01:12:26;;;;;;;4.10;3.70;;;18.10;99.90;;;;;;6300310;28;20473;-62
2022/06/09 01:15:34;;;;;;;5.40;4.30;;;18.10;99.90;;;;;;6301374;28;20476;-62
2022/06/09 01:18:50;;;;;;;7.77;4.67;;;18.20;99.90;;;;;;6301498;28;20478;-62
2022/06/09 01:22:17;;;;;;;5.10;4.30;;;18.10;99.90;;;;;;6301407;28;20469;-62
2022/06/09 01:25:58;;;;;;;5.80;3.83;;;18.20;99.90;;;;;;6301402;28;20476;-62
2022/06/09 01:29:30;;;;;;;3.93;3.63;;;18.20;99.90;;;;;;6265934;28;20469;-62
2022/06/09 01:32:38;;;;;;;6.10;4.17;;;18.20;99.90;;;;;;6301223;28;20477;-62
2022/06/09 01:35:47;;;;;;;7.67;4.10;;;18.20;99.90;;;;;;6301249;28;20466;-63
2022/06/09 01:38:54;;;;;;;4.30;4.00;;;18.20;99.90;;;;;;6301235;28;20544;-62
2022/06/09 01:41:57;;;;;;;4.40;4.10;;;18.30;99.90;;;;;;6300761;28;20930;-62
2022/06/09 01:45:05;;;;;;;4.43;3.97;;;18.20;99.90;;;;;;6300785;28;20926;-62
2022/06/09 01:48:13;;;;;;;7.60;4.60;;;18.20;99.90;;;;;;6300763;28;20458;-62
2022/06/09 01:51:19;;;;;;;5.70;3.77;;;18.20;99.90;;;;;;6301071;28;20469;-62
2022/06/09 01:54:28;;;;;;;4.00;3.70;;;18.10;99.90;;;;;;6300457;28;20488;-62
2022/06/09 01:57:35;;;;;;;8.40;4.30;;;18.20;99.90;;;;;;6300917;28;20465;-62
2022/06/09 02:00:39;;;;;;;5.30;4.80;;;18.10;99.90;;;;;;6300271;28;20931;-62
2022/06/09 02:03:47;;;;;;;4.17;3.77;;;18.00;99.90;;;;;;6300119;28;20473;-62
2022/06/09 02:06:52;;;;;;;7.00;4.30;;;18.00;99.90;;;;;;6300354;28;20500;-62
2022/06/09 02:09:55;;;;;;;4.67;4.27;;;18.00;99.90;;;;;;6290948;28;20488;-62
2022/06/09 02:13:03;;;;;;;5.47;4.50;;;18.00;99.90;;;;;;6299775;28;20492;-62
2022/06/09 02:16:11;;;;;;;4.57;4.27;;;18.00;99.90;;;;;;6300375;28;20481;-62
2022/06/09 02:19:16;;;;;;;5.20;4.57;;;17.90;99.90;;;;;;6299985;28;20850;-62
2022/06/09 02:22:19;;;;;;;7.27;4.67;;;17.70;99.90;;;;;;6299752;28;20478;-62
2022/06/09 02:25:23;;;;;;;4.87;4.47;;;17.80;99.90;;;;;;6299529;28;20997;-62
2022/06/09 02:28:26;;;;;;;5.13;4.83;;;17.90;99.90;;;;;;6299438;28;20791;-63
2022/06/09 02:31:29;;;;;;;5.00;4.60;;;17.80;99.90;;;;;;6299752;28;20469;-63
2022/06/09 02:34:34;;;;;;;4.97;4.47;;;17.80;99.90;;;;;;6299692;28;20479;-63
2022/06/09 02:37:37;;;;;;;5.67;4.50;;;17.80;99.90;;;;;;6299975;28;20484;-62
2022/06/09 02:40:40;;;;;;;5.50;5.00;;;17.80;99.90;;;;;;6299789;28;20499;-61
2022/06/09 02:43:43;;;;;;;6.03;4.63;;;17.90;99.90;;;;;;6299669;28;20473;-62
2022/06/09 02:46:47;;;;;;;6.00;5.23;;;17.90;99.90;;;;;;6299064;28;21067;-62
2022/06/09 02:49:51;;;;;;;6.33;4.50;;;17.90;99.90;;;;;;6299354;28;20487;-62
2022/06/09 02:52:54;;;;;;;10.87;4.83;;;17.90;99.90;;;;;;6299315;28;20469;-62
2022/06/09 02:55:57;;;;;;;7.87;5.10;;;17.90;99.90;;;;;;6299530;28;20480;-61
2022/06/09 02:59:02;;;;;;;4.87;4.47;;;17.80;99.90;;;;;;6299529;28;20483;-61
2022/06/09 03:02:05;;;;;;;5.63;5.10;;;17.80;99.90;;;;;;6299441;28;20953;-62
2022/06/09 03:05:10;;;;;;;5.03;4.53;;;17.80;99.90;;;;;;6299308;28;20971;-61
2022/06/09 03:08:13;;;;;;;5.07;4.67;;;17.80;99.90;;;;;;6299716;28;20469;-61
2022/06/09 03:11:16;;;;;;;6.30;4.60;;;17.80;99.90;;;;;;6299125;28;20824;-61
2022/06/09 03:14:19;;;;;;;5.27;4.77;;;17.80;99.90;;;;;;6289672;28;20841;-62
2022/06/09 03:17:23;;;;;;;7.73;4.70;;;17.80;99.90;;;;;;6298959;28;20476;-61
2022/06/09 03:20:33;;;;;;;5.63;5.20;;;17.70;99.90;;;;;;6298814;28;20485;-62
2022/06/09 03:23:37;;;;;;;5.70;4.73;;;17.70;99.90;;;;;;6299159;28;20478;-62
2022/06/09 03:26:41;;;;;;;5.83;4.93;;;17.70;99.90;;;;;;6299028;28;20473;-62
2022/06/09 03:29:44;;;;;;;6.10;4.33;;;17.60;99.90;;;;;;6299291;28;20457;-63
2022/06/09 03:32:48;;;;;;;5.50;4.13;;;17.60;99.90;;;;;;6299128;28;20457;-62
2022/06/09 03:35:52;;;;;;;5.70;5.13;;;17.50;99.90;;;;;;6302279;28;20445;-61
2022/06/09 03:38:56;;;;;;;5.17;4.40;;;17.60;99.90;;;;;;6303799;28;20460;-61
2022/06/09 03:41:59;;;;;;;5.37;4.00;;;17.60;99.90;;;;;;6303341;28;20961;-61
2022/06/09 03:45:02;;;;;;;3.90;3.60;;;17.70;99.90;;;;;;6303618;28;20445;-61
2022/06/09 03:48:12;;;;;;;4.00;3.57;;;17.80;99.90;;;;;;6303694;28;20499;-61
2022/06/09 03:51:16;;;;;;;6.83;3.70;;;17.80;99.90;;;;;;6303331;28;20465;-61
2022/06/09 03:54:19;;;;;;;4.20;3.80;;;17.80;99.90;;;;;;6303509;28;20469;-61
2022/06/09 03:57:24;;;;;;;4.93;3.80;;;17.90;99.90;;;;;;6303322;28;20465;-62
2022/06/09 04:00:29;;;;;;;3.70;3.50;;;17.90;99.90;;;;;;6303283;28;20474;-62
2022/06/09 04:03:32;;;;;;;3.93;3.63;;;18.00;99.90;;;;;;6302952;28;20473;-61
2022/06/09 04:06:36;;;;;;;3.70;3.43;;;18.00;99.90;;;;;;6303690;28;20480;-61
2022/06/09 04:09:40;;;;;;;6.03;3.77;;;18.00;99.90;;;;;;6303057;28;20469;-61
2022/06/09 04:12:43;;;;;;;4.63;3.50;;;18.10;99.90;;;;;;6303254;28;20477;-62
2022/06/09 04:15:47;;;;;;;4.07;3.50;;;18.10;99.90;;;;;;6294247;28;20465;-62
2022/06/09 04:18:50;;;;;;;3.80;3.40;;;18.10;99.90;;;;;;6303147;28;20484;-62
2022/06/09 04:21:54;;;;;;;5.20;3.10;;;18.10;99.90;;;;;;6303049;28;20775;-62
2022/06/09 04:24:57;;;;;;;3.80;3.17;;;18.10;99.90;;;;;;6302667;28;20473;-62
2022/06/09 04:28:00;;;;;;;3.47;3.27;;;18.10;99.90;;;;;;6302927;28;20471;-62
2022/06/09 04:31:04;;;;;;;4.47;2.80;;;18.10;99.90;;;;;;6303026;28;20556;-62
2022/06/09 04:34:07;;;;;;;3.23;2.93;;;18.20;99.90;;;;;;6302589;28;20968;-62
2022/06/09 04:37:12;;;;;;;3.47;3.17;;;18.20;99.90;;;;;;6302778;28;20469;-62
2022/06/09 04:40:15;;;;;;;3.50;2.90;;;18.20;99.90;;;;;;6302565;28;20496;-61
2022/06/09 04:43:18;;;;;;;3.40;3.10;;;18.20;99.90;;;;;;6302080;28;20480;-61
2022/06/09 04:46:24;;;;;;;2.47;2.37;;;18.10;99.90;;;;;;6302636;28;20485;-62
2022/06/09 04:49:27;;;;;;;2.70;2.50;;;18.20;99.90;;;;;;6302895;28;20595;-63
2022/06/09 04:52:32;;;;;;;3.53;2.90;;;18.20;99.90;;;;;;6303246;28;20488;-62
2022/06/09 04:55:36;;;;;;;3.17;2.97;;;18.20;99.90;;;;;;6304213;28;20483;-62
2022/06/09 04:58:39;;;;;;;2.70;2.50;;;18.30;99.90;;;;;;6303531;28;20469;-62
2022/06/09 05:01:42;;;;;;;3.43;2.80;;;18.40;99.90;;;;;;6303593;28;20488;-61
2022/06/09 05:04:46;;;;;;;2.93;2.37;;;18.40;99.90;;;;;;6302621;28;20550;-62
2022/06/09 05:07:50;;;;;;;5.40;2.73;;;18.40;99.90;;;;;;6302350;28;20466;-62
2022/06/09 05:10:53;;;;;;;2.73;2.50;;;18.40;99.90;;;;;;6301724;28;20461;-62
2022/06/09 05:13:56;;;;;;;3.00;2.80;;;18.40;99.90;;;;;;6301545;28;20979;-62
2022/06/09 05:17:00;;;;;;;3.30;2.13;;;18.40;99.90;;;;;;6301734;28;20961;-62
2022/06/09 05:20:03;;;;;;;2.70;1.87;;;18.40;99.90;;;;;;6301328;28;20476;-62
2022/06/09 05:23:08;;;;;;;3.53;1.80;;;18.40;99.90;;;;;;6301563;28;20480;-63
2022/06/09 05:26:12;;;;;;;2.20;1.87;;;18.50;99.90;;;;;;6301513;28;20454;-63
2022/06/09 05:29:16;;;;;;;2.00;1.90;;;18.60;99.90;;;;;;6300856;28;20967;-63
2022/06/09 05:32:20;;;;;;;2.47;2.27;;;18.60;99.90;;;;;;6301086;28;20232;-62
2022/06/09 05:35:24;;;;;;;2.07;1.77;;;18.60;99.90;;;;;;6300517;28;20484;-62
2022/06/09 05:45:11;;;;;;;1.67;1.57;;;18.80;99.90;;;;;;6300882;28;20230;-63
2022/06/09 05:48:14;;;;;;;2.30;1.80;;;18.70;99.90;;;;;;6300549;28;20465;-63
2022/06/09 05:51:18;;;;;;;4.23;1.50;;;18.80;99.90;;;;;;6301256;28;20229;-63
2022/06/09 05:54:23;;;;;;;1.60;1.50;;;18.90;99.90;;;;;;6300929;28;20683;-63
2022/06/09 05:57:27;;;;;;;1.63;1.50;;;18.70;99.90;;;;;;6300238;28;20692;-64
2022/06/09 06:00:31;;;;;;;2.10;1.70;;;18.80;99.90;;;;;;6300844;28;20305;-61
2022/06/09 06:03:36;;;;;;;1.63;1.30;;;18.90;99.90;;;;;;6301071;28;20558;-62
2022/06/09 06:06:39;;;;;;;1.33;1.23;;;18.90;99.70;;;;;;6301311;28;20223;-62
2022/06/09 06:09:47;;;;;;;2.20;1.50;;;19.00;99.00;;;;;;6300284;28;20589;-62
2022/06/09 06:12:50;;;;;;;2.10;1.50;;;19.00;99.20;;;;;;6300045;28;20231;-62
2022/06/09 06:15:53;;;;;;;2.30;1.50;;;19.00;99.40;;;;;;6299928;28;20675;-62
2022/06/09 06:19:02;;;;;;;2.40;1.53;;;18.90;99.30;;;;;;6300289;28;20537;-62
2022/06/09 06:22:05;;;;;;;1.67;1.10;;;18.90;99.30;;;;;;6299665;28;20235;-62
2022/06/09 06:25:10;;;;;;;2.10;1.53;;;18.90;99.10;;;;;;6300180;28;20233;-62
2022/06/09 06:28:13;;;;;;;1.30;1.20;;;18.90;99.20;;;;;;6299665;28;20235;-62
2022/06/09 06:31:16;;;;;;;1.60;1.03;;;18.90;99.20;;;;;;6300066;28;20237;-62
2022/06/09 06:34:20;;;;;;;2.47;1.20;;;18.90;98.70;;;;;;6299767;28;20235;-62
2022/06/09 06:37:23;;;;;;;2.20;1.30;;;18.90;98.70;;;;;;6299718;28;20465;-62
2022/06/09 06:40:28;;;;;;;1.33;1.20;;;18.90;98.50;;;;;;6299816;28;20227;-62
2022/06/09 06:43:32;;;;;;;1.90;1.40;;;18.90;98.10;;;;;;6299235;28;20241;-62
2022/06/09 06:46:36;;;;;;;1.47;1.03;;;18.90;98.10;;;;;;6299481;28;20531;-62
2022/06/09 06:49:39;;;;;;;1.60;1.13;;;18.90;98.30;;;;;;6299780;28;20476;-63
2022/06/09 06:52:44;;;;;;;1.17;1.07;;;18.90;98.20;;;;;;6299704;28;20239;-62
2022/06/09 06:55:48;;;;;;;1.37;1.17;;;18.90;97.70;;;;;;6299525;28;20227;-62
2022/06/09 06:58:51;;;;;;;1.47;1.37;;;18.90;98.40;;;;;;6299328;28;20484;-63
2022/06/09 07:01:55;;;;;;;2.90;1.20;;;18.90;98.20;;;;;;6299353;28;20485;-62
2022/06/09 07:04:58;;;;;;;1.67;0.90;;;18.90;98.60;;;;;;6299527;28;20700;-62
2022/06/09 07:08:03;;;;;;;2.17;1.20;;;18.90;98.10;;;;;;6299479;28;20496;-63
2022/06/09 07:11:09;;;;;;;2.60;1.00;;;18.90;98.10;;;;;;6303209;28;20269;-62
2022/06/09 07:14:13;;;;;;;1.10;1.10;;;18.90;98.00;;;;;;6304501;28;20238;-62
2022/06/09 07:17:17;;;;;;;1.23;1.13;;;18.90;98.10;;;;;;6304375;28;20245;-62
2022/06/09 07:20:21;;;;;;;1.40;0.90;;;19.00;97.90;;;;;;6304331;28;20227;-63
2022/06/09 07:23:26;;;;;;;4.20;1.10;;;18.90;97.60;;;;;;6294626;28;20235;-64
2022/06/09 07:26:31;;;;;;;2.33;1.03;;;18.90;97.50;;;;;;6304164;28;20691;-62
2022/06/09 07:29:34;;;;;;;1.53;1.20;;;18.90;97.20;;;;;;6303957;28;20469;-62
2022/06/09 07:32:40;;;;;;;1.80;1.70;;;18.90;97.50;;;;;;6303544;28;20469;-62
2022/06/09 07:35:43;;;;;;;2.50;1.17;;;19.00;97.60;;;;;;6304124;28;20222;-62
2022/06/09 07:38:46;;;;;;;1.07;0.97;;;19.00;97.20;;;;;;6303819;28;20237;-62
2022/06/09 07:41:51;;;;;;;2.03;1.20;;;19.00;97.10;;;;;;6303353;28;20235;-61
2022/06/09 07:44:54;;;;;;;0.63;0.63;;;19.00;97.00;;;;;;6303744;28;20633;-62
2022/06/09 07:47:57;;;;;;;5.80;1.30;;;19.00;97.10;;;;;;6303820;28;20215;-62
2022/06/09 07:51:01;;;;;;;1.07;0.80;;;19.00;96.80;;;;;;6304157;28;20214;-62
2022/06/09 07:54:06;;;;;;;3.17;1.00;;;19.00;96.60;;;;;;6303084;28;20238;-63
2022/06/09 07:57:12;;;;;;;1.43;1.10;;;19.10;96.60;;;;;;6303866;28;20238;-63
2022/06/09 08:00:16;;;;;;;2.10;0.93;;;19.10;96.60;;;;;;6303525;28;20227;-63
2022/06/09 08:03:21;;;;;;;0.80;0.80;;;19.10;96.60;;;;;;6303073;28;20242;-63
2022/06/09 08:06:25;;;;;;;2.97;1.20;;;19.10;96.70;;;;;;6302802;28;20233;-63
2022/06/09 08:09:29;;;;;;;1.73;0.80;;;19.10;96.90;;;;;;6303109;28;20227;-63
2022/06/09 08:12:34;;;;;;;1.47;1.00;;;19.20;96.70;;;;;;6302885;28;20227;-63
2022/06/09 08:15:38;;;;;;;1.67;1.07;;;19.20;96.50;;;;;;6303061;28;20241;-62
2022/06/09 08:18:41;;;;;;;2.10;1.10;;;19.30;96.70;;;;;;6302814;28;20676;-62
2022/06/09 08:21:45;;;;;;;1.53;0.93;;;19.30;96.40;;;;;;6302100;28;20241;-62
2022/06/09 08:24:55;;;;;;;1.00;0.80;;;19.40;96.10;;;;;;6298056;28;20224;-62
2022/06/09 08:28:00;;;;;;;1.97;0.90;;;19.50;96.00;;;;;;6302271;28;20245;-62
2022/06/09 08:31:04;;;;;;;0.90;0.70;;;19.70;95.70;;;;;;6302561;28;20219;-62
2022/06/09 08:34:07;;;;;;;2.73;1.03;;;19.70;95.90;;;;;;6302917;28;20627;-62
2022/06/09 08:37:10;;;;;;;1.57;0.70;;;19.80;95.90;;;;;;6303852;28;20244;-63
2022/06/09 08:40:17;;;;;;;1.13;0.60;;;19.80;95.40;;;;;;6304856;28;20234;-65
2022/06/09 08:43:30;;;;;;;2.60;0.93;;;19.70;95.50;;;;;;6304971;28;20231;-63
2022/06/09 08:46:46;;;;;;;0.80;0.80;;;19.70;94.80;;;;;;6304295;28;20340;-63
2022/06/09 08:50:04;;;;;;;1.57;0.50;;;19.70;95.20;;;;;;6305319;28;20804;-63
2022/06/09 08:53:17;;;;;;;0.80;0.70;;;19.70;94.70;;;;;;6304376;28;20310;-63
2022/06/09 08:56:26;;;;;;;2.20;1.03;;;19.90;94.80;;;;;;6304361;28;20245;-63
2022/06/09 08:59:37;;;;;;;1.43;0.70;;;20.00;94.80;;;;;;6304237;28;20235;-63
2022/06/09 09:02:44;;;;;;;1.00;0.60;;;20.00;94.80;;;;;;6304067;28;20615;-64
2022/06/09 09:05:53;;;;;;;0.93;0.67;;;20.20;94.40;;;;;;6304714;28;20585;-64
2022/06/09 09:09:06;;;;;;;1.63;0.67;;;20.30;93.80;;;;;;6303878;28;20219;-64
2022/06/09 09:12:17;;;;;;;1.90;0.60;;;20.40;93.60;;;;;;6304501;28;20249;-63
2022/06/09 09:15:28;;;;;;;0.67;0.67;;;20.50;93.70;;;;;;6304482;28;20234;-64
2022/06/09 09:18:37;;;;;;;1.27;0.77;;;20.70;93.60;;;;;;6304152;28;20223;-63
2022/06/09 09:22:01;;;;;;;1.23;0.80;;;20.60;92.80;;;;;;6303875;28;20231;-63
2022/06/09 09:25:17;;;;;;;1.53;0.60;;;20.60;93.30;;;;;;6304090;28;20224;-63
2022/06/09 09:28:23;;;;;;;0.80;0.60;;;20.60;92.80;;;;;;6303310;28;20231;-63
2022/06/09 09:31:46;;;;;;;2.10;0.83;;;20.60;93.00;;;;;;6303163;28;20242;-63
2022/06/09 09:34:51;;;;;;;1.63;0.40;;;20.70;93.30;;;;;;6302774;28;20231;-63
2022/06/09 09:37:56;;;;;;;0.80;0.60;;;21.00;93.00;;;;;;6304548;28;20226;-63
2022/06/09 09:41:01;;;;;;;0.50;0.40;;;21.30;92.60;;;;;;6304002;28;20576;-63
2022/06/09 09:44:15;;;;;;;0.80;0.80;;;21.40;92.10;;;;;;6303056;28;20318;-64
2022/06/09 09:47:28;;;;;;;1.30;0.67;;;21.40;92.20;;;;;;6302913;28;20251;-64
2022/06/09 09:50:39;;;;;;;0.93;0.70;;;21.40;92.00;;;;;;6302333;28;20235;-64
2022/06/09 09:53:56;;;;;;;0.70;0.60;;;21.30;91.80;;;;;;6302109;28;20563;-64
2022/06/09 09:57:15;;;;;;;0.90;0.73;;;21.30;91.80;;;;;;6303159;28;20230;-63
2022/06/09 10:00:26;;;;;;;1.17;0.37;;;21.40;91.90;;;;;;6303229;28;20231;-64
2022/06/09 10:11:00;;;;;;;2.63;0.70;;;21.40;91.40;;;;;;6301953;28;20227;-63
2022/06/09 10:14:34;;;;;;;0.77;0.40;;;21.30;91.70;;;;;;6301767;28;20231;-63
2022/06/09 10:17:59;;;;;;;1.00;0.70;;;21.10;92.10;;;;;;6301848;28;20212;-63
2022/06/09 10:21:22;;;;;;;0.80;0.50;;;21.10;91.80;;;;;;6302226;28;20223;-63
2022/06/09 10:24:31;;;;;;;2.97;0.60;;;21.00;91.70;;;;;;6301254;28;20550;-65
2022/06/09 10:27:49;;;;;;;0.90;0.50;;;21.10;91.60;;;;;;6301794;28;20228;-63
2022/06/09 10:31:00;;;;;;;1.60;0.53;;;20.90;91.60;;;;;;6302074;28;20245;-63
2022/06/09 10:34:14;;;;;;;2.00;0.47;;;20.90;91.70;;;;;;6302817;28;20578;-63
2022/06/09 10:37:25;;;;;;;1.17;0.57;;;20.90;91.90;;;;;;6301618;28;20227;-63
2022/06/09 10:40:37;;;;;;;0.60;0.40;;;20.90;91.80;;;;;;6302622;28;20247;-63
2022/06/09 10:43:45;;;;;;;0.97;0.70;;;20.90;92.00;;;;;;6302048;28;20684;-63
2022/06/09 10:57:25;;;;;;;0.97;0.50;;;21.20;91.70;;;;;;6301865;28;20219;-63
2022/06/09 11:00:31;;;;;;;2.10;0.63;;;21.30;91.50;;;;;;6301452;28;20649;-63
2022/06/09 11:03:42;;;;;;;1.17;0.87;;;21.40;91.50;;;;;;6301129;28;20235;-63
2022/06/09 11:07:15;;;;;;;2.07;0.60;;;21.30;90.90;;;;;;6302540;28;20255;-63
2022/06/09 11:10:27;;;;;;;0.87;0.47;;;21.20;91.70;;;;;;6302030;28;20242;-63
2022/06/09 11:13:52;;;;;;;1.97;0.60;;;21.30;91.70;;;;;;6301276;28;20238;-63
2022/06/09 11:17:23;;;;;;;2.93;1.30;;;21.30;91.20;;;;;;6302146;28;20605;-63
2022/06/09 11:20:36;;;;;;;3.43;0.80;;;21.20;91.50;;;;;;6301305;28;20685;-63
2022/06/09 11:23:53;;;;;;;1.33;0.40;;;21.10;91.40;;;;;;6301631;28;20231;-63
2022/06/09 11:27:13;;;;;;;1.43;0.43;;;21.00;91.60;;;;;;6301962;28;20208;-63
2022/06/09 11:30:26;;;;;;;0.53;0.40;;;20.90;91.50;;;;;;6302133;28;20227;-64
2022/06/09 11:33:43;;;;;;;1.13;0.60;;;20.80;91.30;;;;;;6301845;28;20229;-63
2022/06/09 11:36:55;;;;;;;1.17;0.40;;;20.70;91.60;;;;;;6292359;28;20306;-63
2022/06/09 11:40:07;;;;;;;0.80;0.50;;;20.60;91.70;;;;;;6301761;28;20249;-63
2022/06/09 11:43:40;;;;;;;3.50;0.43;;;20.50;91.70;;;;;;6301417;28;20250;-63
2022/06/09 11:46:44;;;;;;;0.80;0.40;;;20.40;91.70;;;;;;6301460;28;20312;-63
2022/06/09 11:49:52;;;;;;;1.17;0.40;;;20.40;91.80;;;;;;6301332;28;20313;-63
2022/06/09 11:52:58;;;;;;;0.70;0.40;;;20.30;92.10;;;;;;6301278;28;20239;-63
2022/06/09 11:56:33;;;;;;;2.50;0.50;;;20.20;92.20;;;;;;6302741;28;20235;-63
2022/06/09 11:59:57;;;;;;;0.60;0.30;;;20.30;92.30;;;;;;6305770;28;20235;-63
2022/06/09 12:03:19;;;;;;;0.90;0.40;;;20.30;91.70;;;;;;6306329;28;20227;-63
2022/06/09 12:06:34;;;;;;;1.37;0.57;;;20.40;91.80;;;;;;6305792;28;20227;-63
2022/06/09 12:09:50;;;;;;;1.17;0.40;;;20.40;91.30;;;;;;6306490;28;20336;-63
2022/06/09 12:13:14;;;;;;;0.70;0.63;;;20.40;91.40;;;;;;6306563;28;20238;-63
2022/06/09 12:16:27;;;;;;;0.87;0.57;;;20.50;91.50;;;;;;6306992;28;20302;-63
2022/06/09 12:19:35;;;;;;;1.33;0.40;;;20.50;91.60;;;;;;6306508;28;20227;-63
2022/06/09 12:22:59;;;;;;;1.00;0.50;;;20.60;92.00;;;;;;6306161;28;20227;-63
2022/06/09 12:26:26;;;;;;;0.90;0.60;;;20.70;92.00;;;;;;6306272;28;20245;-63
2022/06/09 12:29:43;;;;;;;0.60;0.40;;;20.80;91.70;;;;;;6305451;28;20246;-63
2022/06/09 12:32:50;;;;;;;4.43;0.97;;;21.00;91.40;;;;;;6305140;28;20249;-63
2022/06/09 12:35:55;;;;;;;2.10;0.40;;;21.20;91.10;;;;;;6304893;28;20325;-63
2022/06/09 12:39:00;;;;;;;0.70;0.50;;;21.40;90.90;;;;;;6305122;28;20208;-63
2022/06/09 12:42:07;;;;;;;0.70;0.50;;;21.50;90.60;;;;;;6305089;28;20670;-63
2022/06/09 12:45:17;;;;;;;0.60;0.40;;;21.60;90.70;;;;;;6305854;28;20246;-63
2022/06/09 12:48:21;;;;;;;1.33;0.60;;;21.80;90.80;;;;;;6305701;28;20226;-64
2022/06/09 12:51:28;;;;;;;0.87;0.50;;;21.80;91.00;;;;;;6305734;28;20227;-63
2022/06/09 12:54:35;;;;;;;1.33;0.67;;;22.00;90.80;;;;;;6305656;28;20226;-63
2022/06/09 12:57:47;;;;;;;0.87;0.50;;;22.00;91.40;;;;;;6305471;28;20231;-64
2022/06/09 13:00:54;;;;;;;0.90;0.60;;;22.10;91.30;;;;;;6305432;28;20238;-63
2022/06/09 13:04:02;;;;;;;0.60;0.50;;;22.20;91.40;;;;;;6305432;28;20684;-63
2022/06/09 13:07:20;;;;;;;0.83;0.67;;;22.10;90.70;;;;;;6305188;28;20251;-63
2022/06/09 13:10:25;;;;;;;1.33;0.67;;;21.90;91.10;;;;;;6304934;28;20245;-63
2022/06/09 13:13:37;;;;;;;1.87;0.43;;;21.70;91.50;;;;;;6305212;28;20231;-63
2022/06/09 13:16:44;;;;;;;0.90;0.67;;;21.60;91.80;;;;;;6305271;28;20242;-64
2022/06/09 13:19:56;;;;;;;1.43;0.80;;;21.50;91.70;;;;;;6305063;28;20231;-64
2022/06/09 13:23:00;;;;;;;0.97;0.70;;;21.50;92.40;;;;;;6304639;28;20310;-64
2022/06/09 13:26:04;;;;;;;2.80;0.70;;;21.60;92.80;;;;;;6304441;28;20262;-64
2022/06/09 13:29:10;;;;;;;0.70;0.60;;;21.60;93.30;;;;;;6304101;28;20222;-64
2022/06/09 13:32:21;;;;;;;0.60;0.40;;;21.50;93.50;;;;;;6304675;28;20313;-64
2022/06/09 13:35:37;;;;;;;5.17;1.17;;;21.50;92.50;;;;;;6304306;28;20220;-64
2022/06/09 13:38:40;;;;;;;1.90;0.70;;;21.50;92.50;;;;;;6304084;28;20322;-64
2022/06/09 13:41:43;;;;;;;2.00;0.60;;;21.40;92.90;;;;;;6304388;28;20230;-64
2022/06/09 13:45:08;;;;;;;1.17;0.60;;;21.50;93.30;;;;;;6299041;28;20231;-64
2022/06/09 13:48:18;;;;;;;3.03;0.33;;;21.40;93.20;;;;;;6304369;28;20223;-64
2022/06/09 13:51:36;;;;;;;2.57;0.53;;;21.50;93.60;;;;;;6304297;28;20558;-63
2022/06/09 13:54:42;;;;;;;1.60;0.50;;;21.50;94.00;;;;;;6304159;28;20232;-63
2022/06/09 13:57:48;;;;;;;1.43;0.40;;;21.50;93.20;;;;;;6304834;28;20223;-63
2022/06/09 14:00:55;;;;;;;1.13;0.50;;;21.30;93.10;;;;;;6304554;28;20241;-64
2022/06/09 14:04:01;;;;;;;3.20;0.60;;;21.30;93.60;;;;;;6303889;28;20242;-64
2022/06/09 14:07:05;;;;;;;1.30;0.60;;;21.20;93.30;;;;;;6304914;28;20676;-64
2022/06/09 14:10:17;;;;;;;3.13;0.90;;;21.10;93.90;;;;;;6303831;28;20687;-64
2022/06/09 14:13:21;;;;;;;0.57;0.43;;;21.10;94.10;;;;;;6303730;28;20239;-64
2022/06/09 14:16:27;;;;;;;3.03;0.40;;;21.20;93.60;;;;;;6304229;28;20238;-65
2022/06/09 14:19:31;;;;;;;0.60;0.40;;;21.20;92.60;;;;;;6304599;28;20231;-65
2022/06/09 14:22:35;;;;;;;0.53;0.30;;;21.10;93.00;;;;;;6304758;28;20226;-64
2022/06/09 14:25:38;;;;;;;0.97;0.50;;;21.10;93.00;;;;;;6304836;28;20254;-64
2022/06/09 14:28:42;;;;;;;0.60;0.40;;;21.10;91.90;;;;;;6304689;28;20236;-64
2022/06/09 14:31:46;;;;;;;0.60;0.30;;;21.10;91.90;;;;;;6304606;28;20227;-64
2022/06/09 14:34:51;;;;;;;1.00;0.30;;;21.10;91.70;;;;;;6304209;28;20262;-64
2022/06/09 14:37:56;;;;;;;0.70;0.50;;;21.10;91.70;;;;;;6304388;28;20226;-64
2022/06/09 14:40:59;;;;;;;1.27;0.40;;;21.00;91.30;;;;;;6304434;28;20775;-63
2022/06/09 14:44:03;;;;;;;1.10;0.30;;;20.90;91.30;;;;;;6303489;28;20264;-63
2022/06/09 14:47:13;;;;;;;2.60;1.03;;;20.90;90.80;;;;;;6303167;28;20314;-63
2022/06/09 14:50:18;;;;;;;1.00;0.43;;;20.80;90.20;;;;;;6303279;28;20238;-63
2022/06/09 14:53:24;;;;;;;1.67;0.40;;;20.80;90.40;;;;;;6304226;28;20695;-63
2022/06/09 14:56:33;;;;;;;0.67;0.37;;;20.80;90.50;;;;;;6303623;28;20567;-63
2022/06/09 14:59:37;;;;;;;0.60;0.37;;;20.70;90.40;;;;;;6303674;28;20245;-64
2022/06/09 15:02:40;;;;;;;1.53;0.40;;;20.70;90.50;;;;;;6303168;28;20680;-63
2022/06/09 15:05:43;;;;;;;0.90;0.47;;;20.70;90.10;;;;;;6304535;28;20312;-63
2022/06/09 15:08:50;;;;;;;0.80;0.40;;;20.70;90.30;;;;;;6304561;28;20235;-63
2022/06/09 15:11:54;;;;;;;0.80;0.40;;;20.60;89.70;;;;;;6302853;28;20737;-63
2022/06/09 15:14:57;;;;;;;0.67;0.30;;;20.60;90.00;;;;;;6303557;28;20655;-64
2022/06/09 15:18:00;;;;;;;0.60;0.40;;;20.60;89.70;;;;;;6304147;28;20289;-63
2022/06/09 15:21:04;;;;;;;0.80;0.40;;;20.50;90.10;;;;;;6303289;28;20206;-63
2022/06/09 15:24:09;;;;;;;0.50;0.30;;;20.50;89.20;;;;;;6303969;28;20219;-63
2022/06/09 15:27:13;;;;;;;0.90;0.40;;;20.50;89.70;;;;;;6303878;28;20231;-63
2022/06/09 15:30:19;;;;;;;0.67;0.30;;;20.50;90.10;;;;;;6303993;28;20253;-63
2022/06/09 15:33:25;;;;;;;0.70;0.50;;;20.60;90.00;;;;;;6309073;28;20227;-64
2022/06/09 15:36:28;;;;;;;0.70;0.37;;;20.50;89.20;;;;;;6308787;28;20223;-64
2022/06/09 15:39:33;;;;;;;0.50;0.37;;;20.50;90.20;;;;;;6308110;28;20226;-64
2022/06/09 15:42:36;;;;;;;0.97;0.30;;;20.50;89.50;;;;;;6308385;28;20239;-64
2022/06/09 15:45:42;;;;;;;0.63;0.40;;;20.50;89.70;;;;;;6307773;28;20230;-64
2022/06/09 15:48:45;;;;;;;0.53;0.30;;;20.40;90.20;;;;;;6308332;28;20259;-64
2022/06/09 15:51:49;;;;;;;1.27;0.40;;;20.40;90.10;;;;;;6308078;28;20227;-63
2022/06/09 15:54:53;;;;;;;0.50;0.23;;;20.30;90.00;;;;;;6307498;28;20231;-64
2022/06/09 15:57:57;;;;;;;0.53;0.27;;;20.40;89.80;;;;;;6307797;28;20240;-64
2022/06/09 16:01:00;;;;;;;0.60;0.30;;;20.30;90.20;;;;;;6307850;28;20241;-64
2022/06/09 16:04:03;;;;;;;0.70;0.33;;;20.20;90.00;;;;;;6307714;28;20242;-63
2022/06/09 16:07:07;;;;;;;0.67;0.40;;;20.30;89.70;;;;;;6307411;28;20235;-63
2022/06/09 16:10:17;;;;;;;0.60;0.40;;;20.20;89.90;;;;;;6307190;28;20306;-64
2022/06/09 16:13:21;;;;;;;0.60;0.37;;;20.20;90.60;;;;;;6306756;28;20227;-64
2022/06/09 16:16:24;;;;;;;1.00;0.40;;;20.20;90.00;;;;;;6307231;28;20584;-63
2022/06/09 16:19:27;;;;;;;0.50;0.30;;;20.10;90.30;;;;;;6307162;28;20244;-64
2022/06/09 16:22:30;;;;;;;0.50;0.30;;;20.00;90.30;;;;;;6306742;28;20645;-64
2022/06/09 16:25:35;;;;;;;0.77;0.30;;;20.00;90.10;;;;;;6307083;28;20237;-65
2022/06/09 16:28:38;;;;;;;0.50;0.30;;;20.00;90.30;;;;;;6306342;28;20570;-64
2022/06/09 16:31:42;;;;;;;0.60;0.30;;;19.90;90.00;;;;;;6306782;28;20237;-64
2022/06/09 16:34:45;;;;;;;0.50;0.30;;;20.00;90.40;;;;;;6306575;28;20234;-64
2022/06/09 16:37:49;;;;;;;0.50;0.40;;;20.00;89.50;;;;;;6306571;28;20233;-64
2022/06/09 16:40:54;;;;;;;0.53;0.30;;;19.90;90.10;;;;;;6305779;28;20318;-64